Time;durP1;ratioP1;P1;durP2;ratioP2;P2;SDS_P1;SDS_P2;PMS_P1;PMS_P2;Temp;Humidity;BMP_temperature;BMP_pressure;BME280_temperature;BME280_humidity;BME280_pressure;Samples;Min_cycle;Max_cycle;Signal;HPM_P1;HPM_P2
2023/05/26 00:00:18;;;;;;;23.73;5.80;;;12.60;1.00;;;;;;5098789;28;20062;-66
2023/05/26 00:02:45;;;;;;;23.55;5.55;;;12.40;1.00;;;;;;5098092;28;20268;-65
2023/05/26 00:05:13;;;;;;;16.45;4.85;;;12.40;1.00;;;;;;5098825;28;20028;-67
2023/05/26 00:07:40;;;;;;;24.80;6.13;;;12.40;1.00;;;;;;5097808;28;20146;-65
2023/05/26 00:10:07;;;;;;;23.92;5.00;;;12.40;1.00;;;;;;5097909;28;20050;-65
2023/05/26 00:12:34;;;;;;;20.65;4.95;;;12.40;1.00;;;;;;5097919;28;20086;-66
2023/05/26 00:14:59;;;;;;;17.52;4.60;;;12.30;1.00;;;;;;5080925;28;20379;-65
2023/05/26 00:17:26;;;;;;;21.17;4.85;;;12.20;1.00;;;;;;5098253;28;20133;-66
2023/05/26 00:19:52;;;;;;;24.60;5.45;;;12.20;1.00;;;;;;5098732;28;20038;-65
2023/05/26 00:22:19;;;;;;;23.83;4.70;;;12.20;1.00;;;;;;5098484;28;20024;-65
2023/05/26 00:24:45;;;;;;;22.35;4.78;;;12.30;1.00;;;;;;5098497;28;20126;-66
2023/05/26 00:27:12;;;;;;;20.35;4.78;;;12.20;1.00;;;;;;5098410;28;20076;-66
2023/05/26 00:29:38;;;;;;;18.50;4.97;;;12.20;1.00;;;;;;5097727;28;20036;-66
2023/05/26 00:32:04;;;;;;;27.02;4.97;;;12.30;1.00;;;;;;5097586;28;20269;-68
2023/05/26 00:34:30;;;;;;;22.73;5.03;;;12.20;1.00;;;;;;5080745;28;20034;-66
2023/05/26 00:36:56;;;;;;;21.70;5.55;;;12.10;1.00;;;;;;5098160;28;20455;-66
2023/05/26 00:39:22;;;;;;;20.98;4.93;;;12.10;1.00;;;;;;5097987;28;20035;-66
2023/05/26 00:41:49;;;;;;;24.40;5.68;;;12.10;1.00;;;;;;5097336;28;20024;-64
2023/05/26 00:44:14;;;;;;;22.92;5.15;;;12.00;1.00;;;;;;5098059;28;20028;-65
2023/05/26 00:46:40;;;;;;;21.85;4.97;;;12.00;1.00;;;;;;5098079;28;20353;-65
2023/05/26 00:49:06;;;;;;;23.13;4.72;;;11.90;1.00;;;;;;5097907;28;20111;-69
2023/05/26 00:51:33;;;;;;;26.42;5.30;;;11.90;1.00;;;;;;5080222;28;20032;-67
2023/05/26 00:53:59;;;;;;;18.23;4.90;;;11.90;1.00;;;;;;5063540;28;20048;-67
2023/05/26 00:56:27;;;;;;;19.42;5.75;;;11.90;1.00;;;;;;5097540;28;20043;-67
2023/05/26 00:59:01;;;;;;;23.23;5.40;;;11.80;1.00;;;;;;5097780;28;20028;-67
2023/05/26 01:01:27;;;;;;;28.60;5.50;;;11.80;1.00;;;;;;5097586;28;20384;-67
2023/05/26 01:03:53;;;;;;;24.80;5.07;;;11.80;1.00;;;;;;5080128;28;20346;-66
2023/05/26 01:06:22;;;;;;;21.10;5.15;;;11.70;1.00;;;;;;5097108;28;20103;-68
2023/05/26 01:08:48;;;;;;;25.73;5.78;;;11.70;1.00;;;;;;5079947;28;20119;-67
2023/05/26 01:11:27;;;;;;;20.10;5.10;;;11.60;1.00;;;;;;5096967;28;20028;-72
2023/05/26 01:14:01;;;;;;;19.50;4.53;;;11.60;1.00;;;;;;5096853;28;20130;-69
2023/05/26 01:16:33;;;;;;;19.17;5.00;;;11.60;1.00;;;;;;5096742;28;20419;-71
2023/05/26 01:19:34;;;;;;;26.27;5.18;;;11.50;1.00;;;;;;5079810;28;20410;-66
2023/05/26 01:22:13;;;;;;;23.48;5.60;;;11.50;1.00;;;;;;5098059;28;20032;-67
2023/05/26 01:24:48;;;;;;;18.80;5.28;;;11.40;1.30;;;;;;5097935;28;20066;-67
2023/05/26 01:27:53;;;;;;;27.58;5.85;;;11.50;1.00;;;;;;5097649;28;20036;-67
2023/05/26 01:30:20;;;;;;;23.13;5.50;;;11.50;1.00;;;;;;5097672;28;20058;-67
2023/05/26 01:32:47;;;;;;;18.13;4.88;;;11.50;1.00;;;;;;5096652;28;20311;-67
2023/05/26 01:35:14;;;;;;;23.98;5.00;;;11.50;1.00;;;;;;5079890;28;20027;-67
2023/05/26 01:37:41;;;;;;;22.40;5.18;;;11.30;2.70;;;;;;5079566;28;20437;-68
2023/05/26 01:40:09;;;;;;;24.40;5.47;;;11.20;8.00;;;;;;5061909;28;20074;-67
2023/05/26 01:42:41;;;;;;;21.15;4.78;;;11.30;5.60;;;;;;5079922;28;20028;-63
2023/05/26 01:45:13;;;;;;;26.80;5.43;;;11.10;10.00;;;;;;5097135;28;20028;-67
2023/05/26 01:47:44;;;;;;;25.50;5.28;;;11.20;9.60;;;;;;5096299;28;20032;-67
2023/05/26 01:50:12;;;;;;;20.17;5.43;;;11.10;9.40;;;;;;5096293;28;20039;-67
2023/05/26 01:52:42;;;;;;;26.85;5.25;;;11.10;13.90;;;;;;5096997;28;20020;-67
2023/05/26 01:55:13;;;;;;;19.17;5.65;;;11.00;16.60;;;;;;5097039;28;20119;-67
2023/05/26 01:57:43;;;;;;;23.58;5.93;;;10.90;18.20;;;;;;5096160;28;20032;-67
2023/05/26 02:00:09;;;;;;;19.20;5.00;;;11.00;20.40;;;;;;5096045;28;20028;-67
2023/05/26 02:02:40;;;;;;;22.00;5.93;;;10.90;22.60;;;;;;5097014;28;20044;-67
2023/05/26 02:05:07;;;;;;;22.98;5.30;;;10.90;20.70;;;;;;5096510;28;20043;-67
2023/05/26 02:07:34;;;;;;;24.20;5.78;;;11.00;21.00;;;;;;5095849;28;20044;-67
2023/05/26 02:10:02;;;;;;;22.63;5.22;;;11.00;18.00;;;;;;5096433;28;20101;-68
2023/05/26 02:12:27;;;;;;;24.63;5.78;;;10.90;21.50;;;;;;5096288;28;20342;-68
2023/05/26 02:14:53;;;;;;;23.80;5.50;;;11.00;19.30;;;;;;5079415;28;20040;-67
2023/05/26 02:17:19;;;;;;;25.05;5.90;;;10.80;25.10;;;;;;5096778;28;20107;-67
2023/05/26 02:19:45;;;;;;;22.77;5.32;;;10.80;25.90;;;;;;5095948;28;20036;-67
2023/05/26 02:22:12;;;;;;;23.02;5.28;;;10.70;28.90;;;;;;5095931;28;20123;-67
2023/05/26 02:24:40;;;;;;;26.83;5.65;;;10.80;28.40;;;;;;5079747;28;20391;-67
2023/05/26 02:27:06;;;;;;;26.67;5.97;;;10.80;28.40;;;;;;5079425;28;20020;-67
2023/05/26 02:29:32;;;;;;;23.33;5.50;;;10.70;29.90;;;;;;5095938;28;20028;-67
2023/05/26 02:31:58;;;;;;;21.33;5.32;;;10.60;35.70;;;;;;5079020;28;20345;-70
2023/05/26 02:34:24;;;;;;;23.13;6.28;;;10.60;35.20;;;;;;5096700;28;20028;-67
2023/05/26 02:36:49;;;;;;;28.63;5.65;;;10.60;35.00;;;;;;5079157;28;20058;-66
2023/05/26 02:39:16;;;;;;;24.67;5.45;;;10.70;33.00;;;;;;5095842;28;20039;-67
2023/05/26 02:41:42;;;;;;;25.98;5.95;;;10.70;32.70;;;;;;5095809;28;20123;-67
2023/05/26 02:44:08;;;;;;;20.08;5.60;;;10.70;32.00;;;;;;5078931;28;20042;-67
2023/05/26 02:46:33;;;;;;;25.52;5.43;;;10.70;33.40;;;;;;5096802;28;20028;-68
2023/05/26 02:49:02;;;;;;;24.95;5.60;;;10.50;34.80;;;;;;5095775;28;20028;-67
2023/05/26 02:51:28;;;;;;;29.10;5.95;;;10.40;43.20;;;;;;5097025;28;20036;-67
2023/05/26 02:53:54;;;;;;;28.77;6.07;;;10.40;43.60;;;;;;5100110;28;20335;-66
2023/05/26 02:56:21;;;;;;;28.83;5.97;;;10.50;44.20;;;;;;5099806;28;20032;-68
2023/05/26 02:58:47;;;;;;;22.70;4.85;;;10.50;41.00;;;;;;5099385;28;20277;-68
2023/05/26 03:01:13;;;;;;;30.60;6.30;;;10.50;40.20;;;;;;5082437;28;20138;-64
2023/05/26 03:03:39;;;;;;;31.75;5.97;;;10.40;42.10;;;;;;5082566;28;20048;-67
2023/05/26 03:06:05;;;;;;;25.85;6.30;;;10.40;41.50;;;;;;5083121;28;20097;-68
2023/05/26 03:08:31;;;;;;;26.58;6.07;;;10.30;45.10;;;;;;5099843;28;20047;-68
2023/05/26 03:10:58;;;;;;;29.02;5.70;;;10.50;42.60;;;;;;5066149;28;20039;-66
2023/05/26 03:13:24;;;;;;;25.10;5.32;;;10.40;45.00;;;;;;5100063;28;20027;-66
2023/05/26 03:15:50;;;;;;;24.15;5.72;;;10.30;45.80;;;;;;5099070;28;20038;-65
2023/05/26 03:18:17;;;;;;;32.55;6.22;;;10.40;45.90;;;;;;5098942;28;20054;-64
2023/05/26 03:20:46;;;;;;;22.35;5.15;;;10.20;50.20;;;;;;5098847;28;20043;-66
2023/05/26 03:23:16;;;;;;;25.85;5.47;;;10.20;53.90;;;;;;5065945;28;20113;-67
2023/05/26 03:25:42;;;;;;;21.38;5.65;;;10.10;53.20;;;;;;5098969;28;20269;-66
2023/05/26 03:28:08;;;;;;;24.77;5.72;;;10.00;56.30;;;;;;5081927;28;20055;-65
2023/05/26 03:30:34;;;;;;;24.27;5.65;;;10.10;56.80;;;;;;5099388;28;20031;-66
2023/05/26 03:33:01;;;;;;;27.25;4.93;;;10.10;56.20;;;;;;5081816;28;20028;-70
2023/05/26 03:35:27;;;;;;;23.83;4.90;;;10.20;52.60;;;;;;5065449;28;20039;-66
2023/05/26 03:37:53;;;;;;;28.80;5.90;;;10.10;53.20;;;;;;5098418;28;20273;-67
2023/05/26 03:40:20;;;;;;;28.83;5.97;;;10.00;62.70;;;;;;5098150;28;20024;-68
2023/05/26 03:42:46;;;;;;;27.38;5.75;;;9.90;61.70;;;;;;5098254;28;20111;-67
2023/05/26 03:45:12;;;;;;;27.45;5.78;;;10.00;63.30;;;;;;5081363;28;20136;-67
2023/05/26 03:47:39;;;;;;;29.08;5.80;;;9.90;61.20;;;;;;5081410;28;20024;-67
2023/05/26 03:50:06;;;;;;;24.27;5.95;;;9.90;64.30;;;;;;5081343;28;20039;-67
2023/05/26 03:52:32;;;;;;;28.95;6.00;;;9.90;62.20;;;;;;5081186;28;20100;-68
2023/05/26 03:54:58;;;;;;;32.20;6.07;;;9.80;60.30;;;;;;5099388;28;20093;-64
2023/05/26 03:57:24;;;;;;;27.58;5.13;;;9.90;63.30;;;;;;5064468;28;20044;-64
2023/05/26 03:59:50;;;;;;;23.45;5.30;;;9.80;66.30;;;;;;5097879;28;20076;-66
2023/05/26 04:02:17;;;;;;;28.40;6.35;;;9.90;68.50;;;;;;5097706;28;20039;-66
2023/05/26 04:04:42;;;;;;;27.13;6.10;;;10.00;62.90;;;;;;5097778;28;20103;-67
2023/05/26 04:07:08;;;;;;;28.00;5.68;;;10.00;63.30;;;;;;5081461;28;20106;-66
2023/05/26 04:09:35;;;;;;;29.58;5.32;;;9.90;62.40;;;;;;5098002;28;20115;-67
2023/05/26 04:12:01;;;;;;;23.98;5.65;;;9.90;62.60;;;;;;5098674;28;20434;-67
2023/05/26 04:14:27;;;;;;;24.30;5.60;;;9.90;64.80;;;;;;5064591;28;20036;-66
2023/05/26 04:16:53;;;;;;;26.60;5.63;;;9.90;65.40;;;;;;5098547;28;20020;-67
2023/05/26 04:19:19;;;;;;;26.80;5.40;;;10.00;62.70;;;;;;5097885;28;20020;-68
2023/05/26 04:21:47;;;;;;;25.85;5.72;;;9.90;57.80;;;;;;5081188;28;20037;-64
2023/05/26 04:24:13;;;;;;;28.60;5.53;;;9.80;64.90;;;;;;5097627;28;20111;-67
2023/05/26 04:26:40;;;;;;;22.38;4.75;;;9.90;65.80;;;;;;5097726;28;20032;-67
2023/05/26 04:29:25;;;;;;;25.48;5.18;;;9.80;65.10;;;;;;5098715;28;20081;-67
2023/05/26 04:32:11;;;;;;;25.08;4.90;;;9.70;67.00;;;;;;5097629;28;20047;-63
2023/05/26 04:34:51;;;;;;;28.00;5.95;;;9.80;68.50;;;;;;5098450;28;20043;-67
2023/05/26 04:37:22;;;;;;;23.83;5.25;;;9.80;63.10;;;;;;5081426;28;20408;-67
2023/05/26 04:39:48;;;;;;;22.02;4.90;;;9.90;64.10;;;;;;5097199;28;20111;-70
2023/05/26 04:42:19;;;;;;;23.63;4.97;;;9.90;67.20;;;;;;5097897;28;20031;-67
2023/05/26 04:44:45;;;;;;;28.25;6.05;;;9.80;66.70;;;;;;5098103;28;20036;-66
2023/05/26 04:47:12;;;;;;;27.98;6.75;;;9.80;63.10;;;;;;5080312;28;20274;-67
2023/05/26 04:49:38;;;;;;;24.63;5.43;;;9.80;61.30;;;;;;5080574;28;20032;-67
2023/05/26 04:52:04;;;;;;;18.50;4.47;;;9.80;62.60;;;;;;5097219;28;20039;-71
2023/05/26 04:54:30;;;;;;;24.17;5.65;;;9.80;62.00;;;;;;5080283;28;20024;-67
2023/05/26 04:56:56;;;;;;;26.42;4.85;;;9.80;68.50;;;;;;5097079;28;20036;-65
2023/05/26 04:59:31;;;;;;;25.60;5.25;;;9.90;61.50;;;;;;5081255;28;20036;-68
2023/05/26 05:01:57;;;;;;;29.25;5.43;;;10.00;61.10;;;;;;5097008;28;20038;-67
2023/05/26 05:04:58;;;;;;;31.83;5.40;;;10.00;60.90;;;;;;5079312;28;20040;-67
2023/05/26 05:07:24;;;;;;;25.70;5.07;;;10.10;58.50;;;;;;5097315;28;20055;-65
2023/05/26 05:09:50;;;;;;;27.38;4.95;;;10.10;53.10;;;;;;5063291;28;20032;-68
2023/05/26 05:12:16;;;;;;;27.55;5.10;;;10.20;51.60;;;;;;5079803;28;20035;-66
2023/05/26 05:14:42;;;;;;;25.38;5.13;;;10.10;52.70;;;;;;5079504;28;20119;-66
2023/05/26 05:17:07;;;;;;;26.25;5.03;;;10.20;53.60;;;;;;5097365;28;20426;-66
2023/05/26 05:19:33;;;;;;;21.40;4.68;;;10.10;52.10;;;;;;5079731;28;20340;-65
2023/05/26 05:21:59;;;;;;;19.83;4.90;;;10.00;56.30;;;;;;5079707;28;20303;-65
2023/05/26 05:24:26;;;;;;;27.75;5.18;;;10.20;54.00;;;;;;5079781;28;20046;-66
2023/05/26 05:26:52;;;;;;;19.30;5.03;;;10.30;49.40;;;;;;5079803;28;20115;-68
2023/05/26 05:29:22;;;;;;;24.63;5.30;;;10.10;53.90;;;;;;5080703;28;20346;-66
2023/05/26 05:31:51;;;;;;;29.27;6.05;;;10.20;51.60;;;;;;5096553;28;20142;-66
2023/05/26 05:34:17;;;;;;;24.38;4.60;;;10.30;49.90;;;;;;5079756;28;20030;-66
2023/05/26 05:36:45;;;;;;;28.17;5.60;;;10.40;50.30;;;;;;5096591;28;20043;-66
2023/05/26 05:39:11;;;;;;;27.55;4.93;;;10.50;41.10;;;;;;5096227;28;20028;-64
2023/05/26 05:41:38;;;;;;;21.92;4.72;;;10.60;38.40;;;;;;5097012;28;20325;-68
2023/05/26 05:44:04;;;;;;;22.58;4.63;;;10.70;31.30;;;;;;5079388;28;20028;-66
2023/05/26 05:46:30;;;;;;;26.27;5.03;;;10.70;35.00;;;;;;5096271;28;20395;-66
2023/05/26 05:49:15;;;;;;;25.95;4.85;;;10.80;31.90;;;;;;5096178;28;20043;-65
2023/05/26 05:51:44;;;;;;;34.70;5.40;;;10.80;27.80;;;;;;5079804;28;20353;-65
2023/05/26 05:54:10;;;;;;;24.23;5.10;;;10.90;25.10;;;;;;5095874;28;20079;-66
2023/05/26 05:56:36;;;;;;;24.23;5.25;;;11.00;23.30;;;;;;5079299;28;20464;-65
2023/05/26 05:59:02;;;;;;;34.58;6.10;;;11.00;19.10;;;;;;5079328;28;20065;-69
2023/05/26 06:01:28;;;;;;;34.53;5.10;;;11.30;15.40;;;;;;5096064;28;20082;-64
2023/05/26 06:03:54;;;;;;;35.33;5.22;;;11.30;8.20;;;;;;5062656;28;20032;-68
2023/05/26 06:06:20;;;;;;;26.98;5.53;;;11.20;9.50;;;;;;5079002;28;20177;-65
2023/05/26 06:08:46;;;;;;;24.60;5.38;;;11.10;15.90;;;;;;5095961;28;20036;-67
2023/05/26 06:11:12;;;;;;;28.58;5.30;;;11.30;13.40;;;;;;5079157;28;20044;-67
2023/05/26 06:13:42;;;;;;;22.77;4.63;;;11.30;10.70;;;;;;5095951;28;20039;-67
2023/05/26 06:16:08;;;;;;;21.33;4.65;;;11.60;12.40;;;;;;5096875;28;20032;-66
2023/05/26 06:18:34;;;;;;;24.00;5.18;;;11.70;1.00;;;;;;5095975;28;20331;-61
2023/05/26 06:21:00;;;;;;;22.95;5.43;;;11.70;1.00;;;;;;5095781;28;20103;-65
2023/05/26 06:23:26;;;;;;;24.45;5.25;;;11.80;1.00;;;;;;5096720;28;20312;-67
2023/05/26 06:25:54;;;;;;;22.98;4.68;;;11.80;1.00;;;;;;5079866;28;20206;-64
2023/05/26 06:28:22;;;;;;;33.47;5.70;;;12.00;1.00;;;;;;5082951;28;20039;-65
2023/05/26 06:30:48;;;;;;;23.25;4.82;;;12.10;1.00;;;;;;5100100;28;20047;-65
2023/05/26 06:33:34;;;;;;;26.65;4.80;;;12.10;1.00;;;;;;5100066;28;20044;-62
2023/05/26 06:36:00;;;;;;;25.30;5.07;;;12.10;1.00;;;;;;5099886;28;20032;-64
2023/05/26 06:38:27;;;;;;;30.27;5.97;;;12.00;1.00;;;;;;5099781;28;20106;-65
2023/05/26 06:40:57;;;;;;;23.42;4.82;;;12.10;1.00;;;;;;5083453;28;20433;-63
2023/05/26 06:43:25;;;;;;;20.17;4.95;;;12.30;1.00;;;;;;5083029;28;20343;-61
2023/05/26 06:45:52;;;;;;;20.50;5.15;;;12.40;1.00;;;;;;5099589;28;20115;-63
2023/05/26 06:48:18;;;;;;;20.48;4.38;;;12.60;1.00;;;;;;5099558;28;20175;-64
2023/05/26 06:51:03;;;;;;;27.08;5.30;;;12.70;1.00;;;;;;5100152;28;20059;-64
2023/05/26 06:53:30;;;;;;;28.65;5.82;;;12.60;1.00;;;;;;5082576;28;20280;-65
2023/05/26 06:55:55;;;;;;;24.65;4.80;;;12.70;1.00;;;;;;5099465;28;20040;-61
2023/05/26 06:58:21;;;;;;;19.60;5.07;;;12.60;1.00;;;;;;5100101;28;20311;-64
2023/05/26 07:01:00;;;;;;;27.75;5.10;;;12.70;1.00;;;;;;5099203;28;20047;-64
2023/05/26 07:03:30;;;;;;;26.27;5.35;;;12.90;1.00;;;;;;5100295;28;20027;-64
2023/05/26 07:05:57;;;;;;;20.13;5.05;;;12.70;1.00;;;;;;5099101;28;20035;-64
2023/05/26 07:08:24;;;;;;;25.85;4.63;;;12.60;1.00;;;;;;5098839;28;20129;-67
2023/05/26 07:10:52;;;;;;;27.27;5.60;;;12.60;1.00;;;;;;5066132;28;20036;-66
2023/05/26 07:13:17;;;;;;;25.55;5.47;;;12.70;1.00;;;;;;5082182;28;20031;-64
2023/05/26 07:15:44;;;;;;;24.85;5.68;;;12.70;1.00;;;;;;5098916;28;20291;-65
2023/05/26 07:18:12;;;;;;;25.70;5.30;;;12.70;1.00;;;;;;5082363;28;20035;-61
2023/05/26 07:20:38;;;;;;;24.15;4.57;;;12.80;1.00;;;;;;5098830;28;20040;-62
2023/05/26 07:23:04;;;;;;;20.83;4.47;;;12.90;1.00;;;;;;5098824;28;20024;-61
2023/05/26 07:25:30;;;;;;;20.27;4.80;;;12.70;1.00;;;;;;5098728;28;20042;-63
2023/05/26 07:27:58;;;;;;;24.52;5.72;;;12.80;1.00;;;;;;5098665;28;20077;-65
2023/05/26 07:30:24;;;;;;;25.02;5.85;;;13.00;1.00;;;;;;5098804;28;20036;-67
2023/05/26 07:33:16;;;;;;;25.60;5.13;;;13.10;1.00;;;;;;5095416;28;20048;-59
2023/05/26 07:35:42;;;;;;;28.67;5.80;;;13.20;1.00;;;;;;5098749;28;20035;-64
2023/05/26 07:38:08;;;;;;;27.95;5.50;;;13.30;1.00;;;;;;5098507;28;20032;-65
2023/05/26 07:40:37;;;;;;;24.85;4.85;;;13.30;1.00;;;;;;5099280;28;20081;-66
2023/05/26 07:43:03;;;;;;;30.15;5.25;;;13.40;1.00;;;;;;5098431;28;20128;-65
2023/05/26 07:45:30;;;;;;;22.00;4.70;;;13.40;1.00;;;;;;5099843;28;20020;-61
2023/05/26 07:47:56;;;;;;;22.58;5.20;;;13.60;1.00;;;;;;5081559;28;20300;-63
2023/05/26 07:50:22;;;;;;;27.63;5.40;;;13.60;1.00;;;;;;5098425;28;20032;-65
2023/05/26 07:52:47;;;;;;;27.17;5.28;;;13.60;1.00;;;;;;5081845;28;20043;-63
2023/05/26 07:55:13;;;;;;;24.77;5.93;;;13.70;1.00;;;;;;5098972;28;20031;-66
2023/05/26 07:57:39;;;;;;;27.77;5.35;;;13.90;1.00;;;;;;5099044;28;20051;-65
2023/05/26 08:00:06;;;;;;;22.17;4.97;;;13.80;1.00;;;;;;5098919;28;20384;-67
2023/05/26 08:02:39;;;;;;;15.93;4.55;;;13.90;1.00;;;;;;5082460;28;20032;-64
2023/05/26 08:05:05;;;;;;;18.75;4.78;;;13.90;1.00;;;;;;5098830;28;20036;-69
2023/05/26 08:07:31;;;;;;;23.48;5.00;;;14.00;1.00;;;;;;5097924;28;20377;-66
2023/05/26 08:09:56;;;;;;;23.33;4.88;;;14.00;1.00;;;;;;5081327;28;20107;-64
2023/05/26 08:12:22;;;;;;;21.05;4.85;;;14.10;1.00;;;;;;5098764;28;20051;-64
2023/05/26 08:14:49;;;;;;;16.67;4.18;;;14.20;1.00;;;;;;5098555;28;20047;-67
2023/05/26 08:17:15;;;;;;;17.92;5.50;;;14.20;1.00;;;;;;5099315;28;20040;-62
2023/05/26 08:19:41;;;;;;;27.73;5.05;;;14.40;1.00;;;;;;5097779;28;20064;-62
2023/05/26 08:22:07;;;;;;;19.98;5.05;;;14.40;1.00;;;;;;5098334;28;20378;-66
2023/05/26 08:24:32;;;;;;;23.88;5.72;;;14.50;1.00;;;;;;5098669;28;20396;-62
2023/05/26 08:26:58;;;;;;;20.17;4.70;;;14.30;1.00;;;;;;5098834;28;20027;-65
2023/05/26 08:29:24;;;;;;;21.23;5.00;;;14.40;1.00;;;;;;5098597;28;20039;-66
2023/05/26 08:31:50;;;;;;;22.75;5.65;;;14.60;1.00;;;;;;5098296;28;20298;-65
2023/05/26 08:34:17;;;;;;;18.90;4.82;;;14.60;1.00;;;;;;5098266;28;20044;-64
2023/05/26 08:36:43;;;;;;;26.27;4.93;;;14.50;1.00;;;;;;5098389;28;20403;-64
2023/05/26 08:39:09;;;;;;;22.70;4.80;;;14.70;1.00;;;;;;5080627;28;20024;-64
2023/05/26 08:41:42;;;;;;;23.42;5.05;;;14.80;1.00;;;;;;5097501;28;20093;-64
2023/05/26 08:44:08;;;;;;;23.42;5.28;;;15.00;1.00;;;;;;5098136;28;20107;-62
2023/05/26 08:46:35;;;;;;;28.35;5.00;;;15.10;1.00;;;;;;5098491;28;20112;-63
2023/05/26 08:49:02;;;;;;;17.52;4.65;;;15.20;1.00;;;;;;5097669;28;20040;-67
2023/05/26 08:51:31;;;;;;;19.98;4.90;;;15.10;1.00;;;;;;5097922;28;20032;-61
2023/05/26 08:53:57;;;;;;;21.52;5.22;;;15.10;1.00;;;;;;5098011;28;20039;-67
2023/05/26 08:56:23;;;;;;;19.92;4.63;;;15.20;1.00;;;;;;5097923;28;20387;-61
2023/05/26 08:58:51;;;;;;;24.75;5.13;;;15.20;99.90;;;;;;5097267;28;20036;-66
2023/05/26 09:01:17;;;;;;;18.27;4.60;;;15.30;99.90;;;;;;5097771;28;20135;-65
2023/05/26 09:03:42;;;;;;;22.73;5.53;;;15.30;99.90;;;;;;5096988;28;20118;-65
2023/05/26 09:06:08;;;;;;;25.73;5.03;;;15.30;99.90;;;;;;5097172;28;20081;-65
2023/05/26 09:08:34;;;;;;;25.48;5.53;;;15.60;99.90;;;;;;5096953;28;20048;-64
2023/05/26 09:11:25;;;;;;;25.85;5.00;;;15.70;99.90;;;;;;5097569;28;20324;-67
2023/05/26 09:13:55;;;;;;;22.25;5.05;;;15.80;99.90;;;;;;5097577;28;20032;-63
2023/05/26 09:16:25;;;;;;;17.25;4.35;;;15.70;99.90;;;;;;5097195;28;20028;-65
2023/05/26 09:19:02;;;;;;;18.08;4.57;;;16.00;99.90;;;;;;5097823;28;20365;-67
2023/05/26 09:21:31;;;;;;;19.42;5.10;;;16.00;1.00;;;;;;5097960;28;20034;-62
2023/05/26 09:23:59;;;;;;;17.88;5.20;;;16.00;1.00;;;;;;5097416;28;20394;-65
2023/05/26 09:26:32;;;;;;;19.90;5.20;;;16.10;82.50;;;;;;5097486;28;20116;-64
2023/05/26 09:28:59;;;;;;;14.43;4.25;;;16.10;1.00;;;;;;5097235;28;20031;-64
2023/05/26 09:31:25;;;;;;;19.83;4.95;;;16.00;1.00;;;;;;5097329;28;20032;-63
2023/05/26 09:33:52;;;;;;;24.33;5.00;;;15.80;1.00;;;;;;5097196;28;20035;-63
2023/05/26 09:36:23;;;;;;;16.98;4.20;;;15.90;1.00;;;;;;5097174;28;20458;-65
2023/05/26 09:38:51;;;;;;;20.33;4.45;;;16.30;1.00;;;;;;5096574;28;20339;-63
2023/05/26 09:41:20;;;;;;;16.77;5.00;;;16.50;1.00;;;;;;5096468;28;20299;-63
2023/05/26 09:43:50;;;;;;;16.42;4.20;;;16.50;99.90;;;;;;5097187;28;20039;-65
2023/05/26 09:46:22;;;;;;;21.98;4.88;;;16.60;99.90;;;;;;5097816;28;20033;-63
2023/05/26 09:48:50;;;;;;;17.85;4.22;;;16.70;63.30;;;;;;5097049;28;20414;-61
2023/05/26 09:51:20;;;;;;;18.48;4.32;;;16.70;99.90;;;;;;5097573;28;20171;-62
2023/05/26 09:53:47;;;;;;;14.25;3.95;;;16.80;99.90;;;;;;5079659;28;20323;-63
2023/05/26 09:56:16;;;;;;;16.33;4.00;;;16.90;1.00;;;;;;5097599;28;20032;-66
2023/05/26 09:58:45;;;;;;;13.27;3.75;;;16.70;1.00;;;;;;5097000;28;20342;-63
2023/05/26 10:01:12;;;;;;;15.88;4.22;;;16.60;1.00;;;;;;5097022;28;20028;-63
2023/05/26 10:03:38;;;;;;;17.52;4.40;;;16.70;1.00;;;;;;5100521;28;20099;-64
2023/05/26 10:06:05;;;;;;;17.73;4.45;;;16.80;1.00;;;;;;5101167;28;20112;-65
2023/05/26 10:08:32;;;;;;;17.65;4.30;;;16.70;99.90;;;;;;5100889;28;20048;-63
2023/05/26 10:10:58;;;;;;;18.50;4.75;;;16.80;1.00;;;;;;5101179;28;20422;-64
2023/05/26 10:13:25;;;;;;;14.88;4.20;;;16.90;1.00;;;;;;5099969;28;20048;-63
2023/05/26 10:15:52;;;;;;;13.95;4.00;;;17.00;1.00;;;;;;5101132;28;20104;-65
2023/05/26 10:18:18;;;;;;;18.67;4.70;;;17.30;1.00;;;;;;5100976;28;20039;-67
2023/05/26 10:20:49;;;;;;;14.35;4.43;;;17.50;1.00;;;;;;5083347;28;20032;-63
2023/05/26 10:23:28;;;;;;;18.33;4.63;;;17.70;1.00;;;;;;5100994;28;20020;-68
2023/05/26 10:26:12;;;;;;;19.40;4.72;;;17.80;1.00;;;;;;5100798;28;20039;-69
2023/05/26 10:28:45;;;;;;;16.30;3.63;;;18.00;99.90;;;;;;5083579;28;20123;-64
2023/05/26 10:31:11;;;;;;;15.32;3.97;;;18.20;22.30;;;;;;5100885;28;20368;-65
2023/05/26 10:33:46;;;;;;;19.73;4.55;;;18.20;99.90;;;;;;5099958;28;20036;-66
2023/05/26 10:36:17;;;;;;;16.95;4.00;;;18.20;99.90;;;;;;5101351;28;20032;-65
2023/05/26 10:38:47;;;;;;;15.25;4.45;;;18.20;47.80;;;;;;5100628;28;20063;-69
2023/05/26 10:41:36;;;;;;;16.13;4.15;;;18.30;1.00;;;;;;5099994;28;20043;-64
2023/05/26 10:44:03;;;;;;;13.70;4.13;;;18.10;99.90;;;;;;5099904;28;20058;-66
2023/05/26 10:46:38;;;;;;;14.63;4.43;;;18.10;1.00;;;;;;5099832;28;20024;-64
2023/05/26 10:49:17;;;;;;;19.75;4.15;;;18.30;99.90;;;;;;5099611;28;20129;-67
2023/05/26 10:51:50;;;;;;;12.65;3.78;;;18.60;1.00;;;;;;5099623;28;20451;-63
2023/05/26 10:54:18;;;;;;;15.65;4.32;;;19.00;1.00;;;;;;5100708;28;20208;-64
2023/05/26 10:56:48;;;;;;;16.02;4.00;;;18.90;99.90;;;;;;5100233;28;20028;-66
2023/05/26 10:59:22;;;;;;;17.17;3.85;;;19.10;99.90;;;;;;5100136;28;20383;-65
2023/05/26 11:01:52;;;;;;;17.25;3.92;;;19.70;1.00;;;;;;5100140;28;20117;-66
2023/05/26 11:04:18;;;;;;;13.68;3.47;;;20.70;99.90;;;;;;5099385;28;20020;-65
2023/05/26 11:06:56;;;;;;;12.93;3.83;;;22.00;1.00;;;;;;5099913;28;20044;-65
2023/05/26 11:09:23;;;;;;;9.63;3.28;;;23.60;99.90;;;;;;5100283;28;20035;-62
2023/05/26 11:11:54;;;;;;;13.18;3.88;;;23.80;1.00;;;;;;5099292;28;20445;-61
2023/05/26 11:14:38;;;;;;;14.98;3.80;;;23.70;1.00;;;;;;5099639;28;20265;-60
2023/05/26 11:17:05;;;;;;;11.68;3.72;;;24.80;1.00;;;;;;5100453;28;20272;-65
2023/05/26 11:19:37;;;;;;;12.95;3.75;;;25.70;1.00;;;;;;5100066;28;20032;-63
2023/05/26 11:22:05;;;;;;;17.40;3.67;;;26.80;99.90;;;;;;5099976;28;20036;-62
2023/05/26 11:24:31;;;;;;;14.93;3.70;;;26.40;99.90;;;;;;5099601;28;20036;-63
2023/05/26 11:27:02;;;;;;;12.00;3.47;;;25.70;99.90;;;;;;5099624;28;20063;-64
2023/05/26 11:29:29;;;;;;;14.70;3.80;;;25.30;99.90;;;;;;5099619;28;20286;-63
2023/05/26 11:31:55;;;;;;;11.38;3.50;;;25.30;99.90;;;;;;5098877;28;20028;-64
2023/05/26 11:34:22;;;;;;;12.68;3.55;;;25.00;99.90;;;;;;5099923;28;20036;-65
2023/05/26 11:36:49;;;;;;;12.98;3.58;;;25.20;99.90;;;;;;5099489;28;20036;-66
2023/05/26 11:39:15;;;;;;;14.23;3.53;;;25.50;99.90;;;;;;5099338;28;20111;-65
2023/05/26 11:41:42;;;;;;;11.98;3.45;;;26.00;99.90;;;;;;5099293;28;20107;-62
2023/05/26 11:44:09;;;;;;;12.25;3.38;;;25.40;99.90;;;;;;5099275;28;20111;-64
2023/05/26 11:46:40;;;;;;;12.52;3.67;;;26.00;99.90;;;;;;5099346;28;20069;-67
2023/05/26 11:49:13;;;;;;;11.98;3.80;;;26.50;99.90;;;;;;5099215;28;20024;-66
2023/05/26 11:51:50;;;;;;;14.10;4.43;;;27.30;99.90;;;;;;5099244;28;20028;-64
2023/05/26 11:54:17;;;;;;;13.50;4.55;;;28.10;99.90;;;;;;5099264;28;20028;-65
2023/05/26 11:56:45;;;;;;;11.57;3.83;;;27.70;99.90;;;;;;5098355;28;20036;-63
2023/05/26 11:59:17;;;;;;;13.02;4.40;;;28.10;99.90;;;;;;5098972;28;20148;-67
2023/05/26 12:01:43;;;;;;;10.60;3.40;;;29.60;99.90;;;;;;5098868;28;20037;-69
2023/05/26 12:04:09;;;;;;;16.08;3.45;;;30.70;95.10;;;;;;5098116;28;20437;-64
2023/05/26 12:06:40;;;;;;;12.35;3.95;;;29.40;59.00;;;;;;5098861;28;20098;-65
2023/05/26 12:09:24;;;;;;;11.25;3.80;;;28.50;57.70;;;;;;5098107;28;20034;-65
2023/05/26 12:11:52;;;;;;;13.85;3.72;;;29.50;55.30;;;;;;5099447;28;20035;-63
2023/05/26 12:14:18;;;;;;;13.02;3.80;;;27.80;40.90;;;;;;5097901;28;20109;-71
2023/05/26 12:16:46;;;;;;;12.43;3.75;;;27.40;42.80;;;;;;5098589;28;20110;-65
2023/05/26 12:19:13;;;;;;;13.50;3.15;;;27.40;75.00;;;;;;5098627;28;20044;-63
2023/05/26 12:21:48;;;;;;;12.30;3.30;;;27.40;48.30;;;;;;5081119;28;20342;-66
2023/05/26 12:24:27;;;;;;;10.38;3.30;;;27.30;49.20;;;;;;5097661;28;20036;-68
2023/05/26 12:26:53;;;;;;;11.05;3.10;;;28.40;36.00;;;;;;5098456;28;20032;-64
2023/05/26 12:29:19;;;;;;;13.23;3.10;;;29.10;31.20;;;;;;5098538;28;20359;-65
2023/05/26 12:31:47;;;;;;;9.25;3.72;;;30.30;32.70;;;;;;5098357;28;20418;-63
2023/05/26 12:34:17;;;;;;;10.85;3.42;;;29.90;21.70;;;;;;5097610;28;20042;-69
2023/05/26 12:36:44;;;;;;;13.27;4.18;;;30.20;22.30;;;;;;5098555;28;20034;-67
2023/05/26 12:39:10;;;;;;;14.20;3.63;;;31.30;13.30;;;;;;5097534;28;20046;-65
2023/05/26 12:41:36;;;;;;;11.60;3.17;;;28.60;1.00;;;;;;5098132;28;20082;-64
2023/05/26 12:44:03;;;;;;;10.48;3.47;;;27.80;5.50;;;;;;5098045;28;20023;-67
2023/05/26 12:46:29;;;;;;;9.18;3.17;;;29.20;12.20;;;;;;5097354;28;20032;-67
2023/05/26 12:48:56;;;;;;;12.52;3.70;;;30.10;8.10;;;;;;5098057;28;20055;-66